Tina-c — 2APY2 — position and weather

sailwx.info

Track history (hours):
 
Tides and Currents Weather Stations Pressure Air Temp Water Temp Dewpoint Dewpoint Depression Visibility Wind Speed Wind Dir Waves Ship Positions

Tina-c

Last reported at 2015-Feb-07 05:14 UTC. Time now 2015-Mar-06 12:38 UTC.
Position N 36°38' E 014°33'.
Warning: this ship's position is 27 days out of date.

Length 99 m; draft 6.6 m.

Type: Cargo ship. MMSI: 235061987.

Date/timePositionNaut miles runAvg speedWind from/ knotsBaromVisibWave heightAir tempDewpointWater temp
2015-Feb-07 05:14N 36°38' E 014°33'710.9
2015-Feb-07 04:33N 36°40' E 014°24'1110.8
2015-Feb-07 03:33N 36°43' E 014°11'1110.9
2015-Feb-07 02:33N 36°45' E 013°58'  
2015-Feb-03 12:06N 35°56' W 005°15'4 7.5
2015-Feb-03 11:33N 35°54' W 005°19'0 0.3
2015-Feb-03 10:31N 35°54' W 005°19'0 0.0
2015-Feb-03 09:31N 35°54' W 005°19'0 0.0
2015-Feb-03 08:31N 35°54' W 005°19'0 0.0
2015-Feb-03 07:31N 35°54' W 005°19'0 0.0
2015-Feb-03 06:31N 35°54' W 005°19'0 0.0
2015-Feb-03 05:31N 35°54' W 005°19'1 1.1
2015-Feb-03 04:33N 35°55' W 005°18'1 0.7
2015-Feb-03 03:33N 35°56' W 005°19'7 6.0
2015-Feb-03 02:24N 35°58' W 005°27'265 8.1
2015-Feb-01 17:31N 38°27' W 010°02'  
2015-Jan-28 17:33N 50°16' W 003°26'9 9.2
2015-Jan-28 16:33N 50°21' W 003°14'8 8.4
2015-Jan-28 15:33N 50°22' W 003°01'28 5.6
2015-Jan-28 10:31N 50°26' W 002°17'6 6.3
2015-Jan-28 09:33N 50°26' W 002°08'29 9.6
2015-Jan-28 06:29N 50°30' W 001°22'1110.7
2015-Jan-28 05:29N 50°30' W 001°05'  
Track history (hours):
 
Tides and Currents Weather Stations Pressure Air Temp Water Temp Dewpoint Dewpoint Depression Visibility Wind Speed Wind Dir Waves Ship Positions

Tina-c

Last reported at 2015-Feb-07 05:14 UTC. Time now 2015-Mar-06 12:38 UTC.
Position N 36°38' E 014°33'.
Warning: this ship's position is 27 days out of date.

Length 99 m; draft 6.6 m.

Type: Cargo ship. MMSI: 235061987.

Date/timePositionNaut miles runAvg speedWind from/ knotsBaromVisibWave heightAir tempDewpointWater temp
2015-Feb-07 05:14N 36°38' E 014°33'710.9
2015-Feb-07 04:33N 36°40' E 014°24'1110.8
2015-Feb-07 03:33N 36°43' E 014°11'1110.9
2015-Feb-07 02:33N 36°45' E 013°58'  
2015-Feb-03 12:06N 35°56' W 005°15'4 7.5
2015-Feb-03 11:33N 35°54' W 005°19'0 0.3
2015-Feb-03 10:31N 35°54' W 005°19'0 0.0
2015-Feb-03 09:31N 35°54' W 005°19'0 0.0
2015-Feb-03 08:31N 35°54' W 005°19'0 0.0
2015-Feb-03 07:31N 35°54' W 005°19'0 0.0
2015-Feb-03 06:31N 35°54' W 005°19'0 0.0
2015-Feb-03 05:31N 35°54' W 005°19'1 1.1
2015-Feb-03 04:33N 35°55' W 005°18'1 0.7
2015-Feb-03 03:33N 35°56' W 005°19'7 6.0
2015-Feb-03 02:24N 35°58' W 005°27'265 8.1
2015-Feb-01 17:31N 38°27' W 010°02'  
2015-Jan-28 17:33N 50°16' W 003°26'9 9.2
2015-Jan-28 16:33N 50°21' W 003°14'8 8.4
2015-Jan-28 15:33N 50°22' W 003°01'28 5.6
2015-Jan-28 10:31N 50°26' W 002°17'6 6.3
2015-Jan-28 09:33N 50°26' W 002°08'29 9.6
2015-Jan-28 06:29N 50°30' W 001°22'1110.7
2015-Jan-28 05:29N 50°30' W 001°05'  

Dump ship's entire track history